Time,TemperatureF,DewpointF,PressureIn,WindDirection,WindDirectionDegrees,WindSpeedMPH,WindSpeedGustMPH,Humidity,HourlyPrecipIn,Conditions,Clouds,dailyrainin,SoftwareType,DateUTC
2013-02-06 00:09:00,21.2,19.0,30.24,North,1,1.0,1.0,89,0.00,,,0.00,weatherlink.com 1.10,2013-02-06 05:09:00,
2013-02-06 00:24:00,21.8,19.0,30.24,NW,319,2.0,3.0,89,0.00,,,0.00,weatherlink.com 1.10,2013-02-06 05:24:00,
2013-02-06 00:39:00,22.4,19.0,30.23,NNE,20,0.0,6.0,88,0.00,,,0.00,weatherlink.com 1.10,2013-02-06 05:39:00,
2013-02-06 00:54:00,22.4,19.0,30.23,NE,39,0.0,2.0,88,0.00,,,0.00,weatherlink.com 1.10,2013-02-06 05:54:00,
2013-02-06 01:09:00,22.5,20.0,30.23,North,4,3.0,4.0,88,0.00,,,0.00,weatherlink.com 1.10,2013-02-06 06:09:00,
2013-02-06 01:24:00,22.5,20.0,30.23,NNW,329,0.0,4.0,88,0.00,,,0.00,weatherlink.com 1.10,2013-02-06 06:24:00,
2013-02-06 01:39:00,22.1,19.0,30.23,West,276,0.0,5.0,89,0.00,,,0.00,weatherlink.com 1.10,2013-02-06 06:39:00,
2013-02-06 01:54:00,21.3,19.0,30.23,North,360,1.0,5.0,89,0.00,,,0.00,weatherlink.com 1.10,2013-02-06 06:54:00,
2013-02-06 02:09:00,20.7,18.0,30.23,NNE,15,2.0,2.0,90,0.00,,,0.00,weatherlink.com 1.10,2013-02-06 07:09:00,
2013-02-06 02:24:00,21.4,19.0,30.24,South,188,0.0,2.0,91,0.00,,,0.00,weatherlink.com 1.10,2013-02-06 07:24:00,
2013-02-06 02:39:00,21.7,20.0,30.23,SW,221,0.0,3.0,91,0.00,,,0.00,weatherlink.com 1.10,2013-02-06 07:39:00,
2013-02-06 02:54:00,22.0,20.0,30.23,SW,214,4.0,4.0,91,0.00,,,0.00,weatherlink.com 1.10,2013-02-06 07:54:00,
2013-02-06 03:09:00,21.5,19.0,30.23,South,188,1.0,4.0,91,0.00,,,0.00,weatherlink.com 1.10,2013-02-06 08:09:00,
2013-02-06 03:24:00,20.9,19.0,30.23,SW,221,0.0,1.0,91,0.00,,,0.00,weatherlink.com 1.10,2013-02-06 08:24:00,
2013-02-06 03:39:00,20.6,18.0,30.24,SW,214,1.0,2.0,91,0.00,,,0.00,weatherlink.com 1.10,2013-02-06 08:39:00,
2013-02-06 03:54:00,20.3,18.0,30.24,SW,214,1.0,1.0,91,0.00,,,0.00,weatherlink.com 1.10,2013-02-06 08:54:00,
2013-02-06 04:09:00,19.9,18.0,30.25,WSW,256,0.0,1.0,92,0.00,,,0.00,weatherlink.com 1.10,2013-02-06 09:09:00,
2013-02-06 04:24:00,19.9,18.0,30.25,WSW,256,0.0,1.0,92,0.00,,,0.00,weatherlink.com 1.10,2013-02-06 09:24:00,
2013-02-06 04:39:00,20.1,18.0,30.26,SSW,195,1.0,8.0,92,0.00,,,0.00,weatherlink.com 1.10,2013-02-06 09:39:00,
2013-02-06 04:54:00,21.0,18.0,30.27,SW,222,2.0,6.0,89,0.00,,,0.00,weatherlink.com 1.10,2013-02-06 09:54:00,
2013-02-06 05:09:00,21.2,18.0,30.28,SSW,200,4.0,4.0,88,0.00,,,0.00,weatherlink.com 1.10,2013-02-06 10:09:00,
2013-02-06 05:24:00,21.2,18.0,30.28,SSW,200,3.0,5.0,86,0.00,,,0.00,weatherlink.com 1.10,2013-02-06 10:24:00,
2013-02-06 05:39:00,21.4,17.0,30.28,SSW,212,2.0,6.0,84,0.00,,,0.00,weatherlink.com 1.10,2013-02-06 10:39:00,
2013-02-06 05:54:00,21.3,17.0,30.29,SSE,154,2.0,5.0,84,0.00,,,0.00,weatherlink.com 1.10,2013-02-06 10:54:00,
2013-02-06 06:09:00,21.3,17.0,30.29,South,174,1.0,5.0,84,0.00,,,0.00,weatherlink.com 1.10,2013-02-06 11:09:00,
2013-02-06 06:24:00,21.2,17.0,30.29,SW,214,0.0,3.0,85,0.00,,,0.00,weatherlink.com 1.10,2013-02-06 11:24:00,
2013-02-06 06:39:00,21.3,18.0,30.30,SW,226,4.0,6.0,85,0.00,,,0.00,weatherlink.com 1.10,2013-02-06 11:39:00,
2013-02-06 06:54:00,21.5,18.0,30.31,SSW,199,2.0,7.0,85,0.00,,,0.00,weatherlink.com 1.10,2013-02-06 11:54:00,
2013-02-06 07:09:00,21.5,18.0,30.32,SW,217,2.0,5.0,85,0.00,,,0.00,weatherlink.com 1.10,2013-02-06 12:09:00,
2013-02-06 07:24:00,21.6,18.0,30.32,SW,229,4.0,5.0,86,0.00,,,0.00,weatherlink.com 1.10,2013-02-06 12:24:00,
2013-02-06 07:39:00,21.7,18.0,30.33,SSE,150,3.0,5.0,86,0.00,,,0.00,weatherlink.com 1.10,2013-02-06 12:39:00,
2013-02-06 07:54:00,22.0,19.0,30.34,SW,232,0.0,5.0,86,0.00,,,0.00,weatherlink.com 1.10,2013-02-06 12:54:00,
2013-02-06 08:09:00,22.2,19.0,30.34,SSE,163,2.0,7.0,86,0.00,,,0.00,weatherlink.com 1.10,2013-02-06 13:09:00,
2013-02-06 08:24:00,22.4,19.0,30.34,South,189,3.0,5.0,86,0.00,,,0.00,weatherlink.com 1.10,2013-02-06 13:24:00,
2013-02-06 08:40:00,22.5,19.0,30.35,SW,218,1.0,6.0,86,0.00,,,0.00,weatherlink.com 1.10,2013-02-06 13:40:00,
2013-02-06 08:55:00,23.3,20.0,30.34,South,188,2.0,7.0,85,0.00,,,0.00,weatherlink.com 1.10,2013-02-06 13:55:00,
2013-02-06 09:10:00,25.0,20.0,30.35,SSW,210,5.0,5.0,82,0.00,,,0.00,weatherlink.com 1.10,2013-02-06 14:10:00,
2013-02-06 09:25:00,24.7,20.0,30.36,South,184,3.0,6.0,81,0.00,,,0.00,weatherlink.com 1.10,2013-02-06 14:25:00,
2013-02-06 09:40:00,25.0,20.0,30.36,SW,229,2.0,6.0,80,0.00,,,0.00,weatherlink.com 1.10,2013-02-06 14:40:00,
2013-02-06 09:55:00,25.2,19.0,30.36,ESE,119,5.0,14.0,78,0.00,,,0.00,weatherlink.com 1.10,2013-02-06 14:55:00,
2013-02-06 10:10:00,26.0,19.0,30.36,South,174,5.0,13.0,75,0.00,,,0.00,weatherlink.com 1.10,2013-02-06 15:10:00,
2013-02-06 10:25:00,26.5,19.0,30.37,SW,231,5.0,10.0,72,0.00,,,0.00,weatherlink.com 1.10,2013-02-06 15:25:00,
2013-02-06 10:40:00,26.5,19.0,30.37,South,186,5.0,18.0,72,0.00,,,0.00,weatherlink.com 1.10,2013-02-06 15:40:00,
2013-02-06 10:55:00,27.1,19.0,30.37,ENE,74,5.0,10.0,70,0.00,,,0.00,weatherlink.com 1.10,2013-02-06 15:55:00,
2013-02-06 11:11:00,25.7,18.0,30.38,SE,138,3.0,12.0,73,0.00,,,0.00,weatherlink.com 1.10,2013-02-06 16:11:00,
2013-02-06 11:25:00,25.3,20.0,30.38,SSW,198,5.0,10.0,79,0.00,,,0.00,weatherlink.com 1.10,2013-02-06 16:25:00,
2013-02-06 11:40:00,24.5,19.0,30.39,SW,221,5.0,9.0,81,0.00,,,0.00,weatherlink.com 1.10,2013-02-06 16:40:00,
2013-02-06 11:55:00,25.6,20.0,30.39,SW,215,3.0,7.0,79,0.00,,,0.00,weatherlink.com 1.10,2013-02-06 16:55:00,
2013-02-06 12:10:00,27.3,20.0,30.39,South,177,1.0,9.0,74,0.00,,,0.00,weatherlink.com 1.10,2013-02-06 17:10:00,
2013-02-06 12:25:00,28.1,19.0,30.39,SW,231,2.0,15.0,68,0.00,,,0.00,weatherlink.com 1.10,2013-02-06 17:25:00,
2013-02-06 12:40:00,27.7,17.0,30.39,SSE,157,8.0,13.0,65,0.00,,,0.00,weatherlink.com 1.10,2013-02-06 17:40:00,
2013-02-06 12:55:00,26.9,19.0,30.40,SSW,207,3.0,18.0,71,0.00,,,0.00,weatherlink.com 1.10,2013-02-06 17:55:00,
2013-02-06 13:10:00,25.1,19.0,30.41,South,191,7.0,10.0,77,0.00,,,0.00,weatherlink.com 1.10,2013-02-06 18:10:00,
2013-02-06 13:25:00,25.1,18.0,30.41,SW,231,3.0,9.0,75,0.00,,,0.00,weatherlink.com 1.10,2013-02-06 18:25:00,
2013-02-06 13:40:00,25.5,17.0,30.41,ENE,63,1.0,7.0,70,0.00,,,0.00,weatherlink.com 1.10,2013-02-06 18:40:00,
2013-02-06 13:55:00,26.6,18.0,30.41,SW,217,7.0,10.0,71,0.00,,,0.00,weatherlink.com 1.10,2013-02-06 18:55:00,
2013-02-06 14:10:00,27.3,16.0,30.42,SW,228,7.0,15.0,62,0.00,,,0.00,weatherlink.com 1.10,2013-02-06 19:10:00,
2013-02-06 14:25:00,27.7,17.0,30.43,SSW,204,6.0,10.0,65,0.00,,,0.00,weatherlink.com 1.10,2013-02-06 19:25:00,
2013-02-06 14:40:00,25.7,13.0,30.44,SW,232,5.0,12.0,60,0.00,,,0.00,weatherlink.com 1.10,2013-02-06 19:40:00,
2013-02-06 14:55:00,25.8,14.0,30.45,SSE,150,6.0,14.0,60,0.00,,,0.00,weatherlink.com 1.10,2013-02-06 19:55:00,
2013-02-06 15:10:00,25.5,14.0,30.46,SSW,194,3.0,11.0,61,0.00,,,0.00,weatherlink.com 1.10,2013-02-06 20:10:00,
2013-02-06 15:25:00,24.8,13.0,30.46,East,89,4.0,14.0,61,0.00,,,0.00,weatherlink.com 1.10,2013-02-06 20:25:00,
2013-02-06 15:40:00,24.2,12.0,30.47,SSW,208,6.0,11.0,61,0.00,,,0.00,weatherlink.com 1.10,2013-02-06 20:40:00,
2013-02-06 15:55:00,23.4,10.0,30.48,South,188,4.0,11.0,58,0.00,,,0.00,weatherlink.com 1.10,2013-02-06 20:55:00,
2013-02-06 16:11:00,23.0,10.0,30.48,SW,219,5.0,10.0,57,0.00,,,0.00,weatherlink.com 1.10,2013-02-06 21:11:00,
2013-02-06 16:26:00,22.8,9.0,30.49,SW,233,3.0,9.0,55,0.00,,,0.00,weatherlink.com 1.10,2013-02-06 21:26:00,
2013-02-06 16:41:00,22.2,8.0,30.50,SW,229,3.0,10.0,54,0.00,,,0.00,weatherlink.com 1.10,2013-02-06 21:41:00,
2013-02-06 16:56:00,21.4,8.0,30.51,East,101,5.0,11.0,56,0.00,,,0.00,weatherlink.com 1.10,2013-02-06 21:56:00,
2013-02-06 17:11:00,20.9,7.0,30.52,SSW,208,4.0,11.0,56,0.00,,,0.00,weatherlink.com 1.10,2013-02-06 22:11:00,
2013-02-06 17:26:00,20.2,7.0,30.53,SSW,192,4.0,7.0,58,0.00,,,0.00,weatherlink.com 1.10,2013-02-06 22:26:00,
2013-02-06 17:41:00,19.8,7.0,30.54,SE,124,4.0,6.0,57,0.00,,,0.00,weatherlink.com 1.10,2013-02-06 22:41:00,
2013-02-06 17:56:00,19.4,6.0,30.55,South,172,3.0,9.0,57,0.00,,,0.00,weatherlink.com 1.10,2013-02-06 22:56:00,
2013-02-06 18:11:00,19.2,4.0,30.56,SSE,156,1.0,9.0,52,0.00,,,0.00,weatherlink.com 1.10,2013-02-06 23:11:00,
2013-02-06 18:26:00,18.3,5.0,30.57,SSW,195,5.0,5.0,57,0.00,,,0.00,weatherlink.com 1.10,2013-02-06 23:26:00,
2013-02-06 18:41:00,17.6,5.0,30.58,SE,143,4.0,6.0,59,0.00,,,0.00,weatherlink.com 1.10,2013-02-06 23:41:00,
2013-02-06 19:11:00,16.8,3.0,30.59,SSW,210,1.0,3.0,55,0.00,,,0.00,weatherlink.com 1.10,2013-02-07 00:11:00,
2013-02-06 19:26:00,16.4,2.0,30.59,South,179,4.0,5.0,54,0.00,,,0.00,weatherlink.com 1.10,2013-02-07 00:26:00,
2013-02-06 19:41:00,15.9,3.0,30.60,SE,141,2.0,5.0,57,0.00,,,0.00,weatherlink.com 1.10,2013-02-07 00:41:00,
2013-02-06 19:56:00,14.9,3.0,30.61,South,188,4.0,6.0,59,0.00,,,0.00,weatherlink.com 1.10,2013-02-07 00:56:00,
2013-02-06 20:11:00,15.0,2.0,30.61,North,358,1.0,8.0,57,0.00,,,0.00,weatherlink.com 1.10,2013-02-07 01:11:00,
2013-02-06 20:26:00,15.0,1.0,30.63,SSE,148,4.0,8.0,55,0.00,,,0.00,weatherlink.com 1.10,2013-02-07 01:26:00,
2013-02-06 20:41:00,15.2,-1.0,30.63,SE,133,2.0,6.0,48,0.00,,,0.00,weatherlink.com 1.10,2013-02-07 01:41:00,
2013-02-06 20:56:00,14.8,-2.0,30.64,SW,218,0.0,10.0,47,0.00,,,0.00,weatherlink.com 1.10,2013-02-07 01:56:00,
2013-02-06 21:12:00,14.5,-2.0,30.65,ESE,103,1.0,5.0,49,0.00,,,0.00,weatherlink.com 1.10,2013-02-07 02:12:00,
2013-02-06 21:27:00,13.0,-1.0,30.66,SSE,153,2.0,3.0,54,0.00,,,0.00,weatherlink.com 1.10,2013-02-07 02:27:00,
2013-02-06 21:42:00,13.2,-2.0,30.66,NNE,20,3.0,4.0,50,0.00,,,0.00,weatherlink.com 1.10,2013-02-07 02:42:00,
2013-02-06 21:57:00,12.1,1.0,30.66,WNW,297,0.0,3.0,61,0.00,,,0.00,weatherlink.com 1.10,2013-02-07 02:57:00,
2013-02-06 22:12:00,11.5,-2.0,30.67,NW,316,1.0,2.0,56,0.00,,,0.00,weatherlink.com 1.10,2013-02-07 03:12:00,
2013-02-06 22:27:00,11.3,0.0,30.67,WNW,291,0.0,4.0,60,0.00,,,0.00,weatherlink.com 1.10,2013-02-07 03:27:00,
2013-02-06 22:42:00,10.9,1.0,30.67,WSW,237,0.0,2.0,64,0.00,,,0.00,weatherlink.com 1.10,2013-02-07 03:42:00,
2013-02-06 22:57:00,10.3,1.0,30.67,NW,310,2.0,3.0,66,0.00,,,0.00,weatherlink.com 1.10,2013-02-07 03:57:00,
2013-02-06 23:12:00,9.8,2.0,30.67,NW,321,1.0,3.0,69,0.00,,,0.00,weatherlink.com 1.10,2013-02-07 04:12:00,
2013-02-06 23:27:00,9.4,1.0,30.68,NW,316,1.0,3.0,70,0.00,,,0.00,weatherlink.com 1.10,2013-02-07 04:27:00,
2013-02-06 23:42:00,9.3,2.0,30.67,NW,318,0.0,2.0,71,0.00,,,0.00,weatherlink.com 1.10,2013-02-07 04:42:00,
2013-02-06 23:57:00,9.9,3.0,30.67,SW,225,1.0,4.0,73,0.00,,,0.00,weatherlink.com 1.10,2013-02-07 04:57:00,